createdAt,value
2023-03-15T00:01:50.883Z,3.60
2023-03-15T00:04:17.929Z,3.60
2023-03-15T00:06:44.839Z,3.60
2023-03-15T00:09:11.789Z,3.60
2023-03-15T00:11:40.613Z,3.70
2023-03-15T00:14:07.896Z,3.60
2023-03-15T00:16:34.902Z,3.60
2023-03-15T00:19:02.097Z,3.60
2023-03-15T00:21:29.938Z,3.60
2023-03-15T00:23:57.632Z,3.60
2023-03-15T00:26:24.541Z,3.60
2023-03-15T00:28:51.578Z,3.70
2023-03-15T00:31:23.845Z,3.70
2023-03-15T00:33:55.588Z,3.70
2023-03-15T00:36:26.806Z,3.80
2023-03-15T00:38:55.662Z,3.70
2023-03-15T00:41:23.898Z,3.70
2023-03-15T00:43:51.843Z,3.70
2023-03-15T00:46:19.819Z,3.70
2023-03-15T00:48:51.488Z,3.70
2023-03-15T00:51:21.543Z,3.70
2023-03-15T00:53:50.677Z,3.70
2023-03-15T00:56:23.584Z,3.80
2023-03-15T00:58:53.014Z,3.80
2023-03-15T01:01:23.455Z,3.70
2023-03-15T01:03:50.795Z,3.80
2023-03-15T01:06:23.724Z,3.70
2023-03-15T01:08:51.599Z,3.80
2023-03-15T01:11:24.334Z,3.70
2023-03-15T01:13:52.678Z,3.80
2023-03-15T01:16:19.952Z,3.70
2023-03-15T01:18:47.286Z,3.80
2023-03-15T01:21:15.748Z,3.60
2023-03-15T01:23:45.979Z,3.70
2023-03-15T01:26:15.125Z,3.80
2023-03-15T01:28:44.549Z,3.80
2023-03-15T01:31:21.678Z,3.80
2023-03-15T01:33:48.814Z,3.80
2023-03-15T01:36:16.788Z,3.80
2023-03-15T01:38:44.333Z,3.80
2023-03-15T01:41:13.685Z,3.70
2023-03-15T01:43:47.497Z,3.80
2023-03-15T01:46:27.875Z,3.80
2023-03-15T01:49:13.950Z,3.80
2023-03-15T01:51:54.898Z,3.90
2023-03-15T01:54:43.733Z,3.90
2023-03-15T01:57:19.123Z,3.80
2023-03-15T01:59:51.397Z,3.70
2023-03-15T02:02:22.972Z,3.80
2023-03-15T02:05:10.001Z,3.80
2023-03-15T02:07:49.866Z,3.80
2023-03-15T02:10:27.445Z,3.80
2023-03-15T02:12:57.378Z,3.80
2023-03-15T02:15:24.474Z,3.80
2023-03-15T02:17:52.148Z,3.80
2023-03-15T02:20:35.403Z,3.80
2023-03-15T02:23:08.956Z,3.80
2023-03-15T02:25:54.257Z,3.70
2023-03-15T02:28:21.526Z,3.60
2023-03-15T02:30:49.257Z,3.60
2023-03-15T02:33:25.486Z,3.60
2023-03-15T02:35:53.651Z,3.60
2023-03-15T02:38:22.641Z,3.60
2023-03-15T02:40:53.319Z,3.60
2023-03-15T02:43:25.192Z,3.60
2023-03-15T02:45:54.057Z,3.60
2023-03-15T02:48:21.929Z,3.50
2023-03-15T02:50:48.874Z,3.50
2023-03-15T02:53:15.881Z,3.40
2023-03-15T02:55:42.852Z,3.50
2023-03-15T02:58:10.676Z,3.40
2023-03-15T03:00:38.519Z,3.40
2023-03-15T03:03:05.662Z,3.30
2023-03-15T03:05:32.910Z,3.30
2023-03-15T03:08:00.045Z,3.30
2023-03-15T03:10:27.490Z,3.30
2023-03-15T03:12:57.549Z,3.20
2023-03-15T03:15:32.820Z,3.20
2023-03-15T03:17:59.990Z,3.20
2023-03-15T03:20:46.166Z,3.10
2023-03-15T03:23:13.803Z,3.10
2023-03-15T03:25:42.479Z,3.10
2023-03-15T03:28:09.439Z,3.00
2023-03-15T03:30:36.509Z,3.00
2023-03-15T03:33:03.627Z,3.00
2023-03-15T03:35:32.805Z,2.90
2023-03-15T03:38:00.256Z,3.00
2023-03-15T03:40:34.190Z,2.90
2023-03-15T03:43:03.706Z,2.80
2023-03-15T03:45:31.080Z,2.80
2023-03-15T03:47:59.847Z,2.90
2023-03-15T03:50:27.353Z,2.90
2023-03-15T03:52:54.792Z,2.90
2023-03-15T03:55:26.418Z,2.90
2023-03-15T03:57:54.280Z,2.90
2023-03-15T04:00:36.155Z,2.90
2023-03-15T04:03:04.469Z,2.90
2023-03-15T04:05:35.407Z,2.80
2023-03-15T04:08:02.690Z,2.90
2023-03-15T04:10:35.074Z,3.00
2023-03-15T04:13:03.255Z,3.00
2023-03-15T04:15:31.446Z,2.90
2023-03-15T04:17:59.374Z,2.90
2023-03-15T04:20:35.580Z,2.90
2023-03-15T04:23:07.398Z,2.90
2023-03-15T04:26:14.691Z,3.00
2023-03-15T04:28:56.650Z,3.00
2023-03-15T04:31:43.890Z,3.00
2023-03-15T04:34:30.273Z,2.90
2023-03-15T04:37:13.798Z,2.80
2023-03-15T04:40:05.015Z,2.80
2023-03-15T04:42:55.551Z,2.80
2023-03-15T04:45:37.238Z,2.80
2023-03-15T04:48:21.444Z,2.70
2023-03-15T04:51:05.215Z,2.80
2023-03-15T04:53:41.015Z,2.70
2023-03-15T04:56:27.029Z,2.70
2023-03-15T04:59:17.222Z,2.60
2023-03-15T05:02:07.362Z,2.60
2023-03-15T05:04:54.708Z,2.50
2023-03-15T05:08:00.011Z,2.60
2023-03-15T05:10:45.362Z,2.50
2023-03-15T05:13:25.533Z,2.50
2023-03-15T05:16:13.462Z,2.40
2023-03-15T05:19:06.380Z,2.40
2023-03-15T05:21:46.883Z,2.50
2023-03-15T05:24:37.272Z,2.60
2023-03-15T05:27:37.412Z,2.60
2023-03-15T05:30:20.323Z,2.60
2023-03-15T05:33:06.039Z,2.60
2023-03-15T05:36:01.944Z,2.70
2023-03-15T05:38:47.223Z,2.70
2023-03-15T05:41:26.156Z,2.70
2023-03-15T05:44:19.238Z,2.80
2023-03-15T05:47:05.104Z,2.80
2023-03-15T05:49:50.053Z,2.70
2023-03-15T05:52:28.811Z,2.80
2023-03-15T05:55:14.456Z,2.80
2023-03-15T05:57:53.477Z,2.90
2023-03-15T06:00:32.576Z,2.90
2023-03-15T06:03:07.077Z,2.90
2023-03-15T06:05:47.280Z,3.00
2023-03-15T06:08:18.939Z,3.00
2023-03-15T06:10:48.337Z,3.00
2023-03-15T06:13:17.891Z,3.00
2023-03-15T06:15:47.564Z,3.00
2023-03-15T06:18:17.449Z,3.00
2023-03-15T06:20:47.315Z,3.00
2023-03-15T06:23:14.854Z,3.00
2023-03-15T06:25:45.796Z,3.00
2023-03-15T06:28:14.068Z,3.00
2023-03-15T06:30:46.787Z,3.00
2023-03-15T06:33:14.525Z,3.00
2023-03-15T06:35:41.677Z,3.00
2023-03-15T06:38:10.465Z,3.00
2023-03-15T06:40:38.725Z,3.10
2023-03-15T06:43:06.744Z,3.10
2023-03-15T06:45:35.278Z,3.20
2023-03-15T06:48:06.456Z,3.20
2023-03-15T06:50:46.077Z,3.20
2023-03-15T06:53:14.764Z,3.20
2023-03-15T06:55:41.929Z,3.20
2023-03-15T06:58:08.936Z,3.20
2023-03-15T07:00:36.192Z,3.20
2023-03-15T07:03:04.122Z,3.20
2023-03-15T07:05:31.651Z,3.20
2023-03-15T07:07:58.706Z,3.20
2023-03-15T07:10:25.982Z,3.20
2023-03-15T07:12:52.913Z,3.20
2023-03-15T07:15:19.870Z,3.20
2023-03-15T07:17:47.000Z,3.20
2023-03-15T07:20:14.277Z,3.30
2023-03-15T07:22:41.250Z,3.30
2023-03-15T07:25:09.603Z,3.30
2023-03-15T07:27:36.563Z,3.40
2023-03-15T07:30:05.143Z,3.40
2023-03-15T07:32:32.894Z,3.50
2023-03-15T07:35:00.758Z,3.70
2023-03-15T07:37:29.298Z,3.70
2023-03-15T07:39:56.298Z,3.80
2023-03-15T07:42:23.291Z,4.00
2023-03-15T07:44:55.762Z,4.10
2023-03-15T07:47:22.807Z,4.20
2023-03-15T07:49:49.712Z,4.30
2023-03-15T07:52:16.970Z,4.40
2023-03-15T07:54:43.946Z,4.50
2023-03-15T07:57:11.088Z,4.50
2023-03-15T07:59:38.045Z,4.50
2023-03-15T08:02:05.394Z,4.60
2023-03-15T08:04:33.931Z,4.60
2023-03-15T08:07:01.971Z,4.70
2023-03-15T08:09:28.933Z,4.90
2023-03-15T08:11:55.983Z,4.90
2023-03-15T08:14:22.960Z,5.00
2023-03-15T08:16:50.986Z,5.00
2023-03-15T08:19:17.964Z,5.00
2023-03-15T08:21:45.411Z,5.20
2023-03-15T08:24:12.832Z,5.20
2023-03-15T08:26:39.903Z,5.20
2023-03-15T08:29:06.875Z,5.10
2023-03-15T08:31:33.971Z,5.10
2023-03-15T08:34:02.153Z,5.20
2023-03-15T08:36:29.097Z,5.20
2023-03-15T08:38:56.105Z,5.20
2023-03-15T08:41:23.141Z,5.30
2023-03-15T08:43:50.890Z,5.20
2023-03-15T08:46:18.114Z,5.10
2023-03-15T08:48:45.079Z,5.10
2023-03-15T08:51:13.449Z,5.20
2023-03-15T08:53:40.995Z,5.20
2023-03-15T08:56:08.171Z,5.30
2023-03-15T08:58:35.930Z,5.30
2023-03-15T09:01:04.950Z,5.30
2023-03-15T09:03:32.900Z,5.50
2023-03-15T09:06:00.526Z,5.50
2023-03-15T09:08:27.909Z,5.60
2023-03-15T09:10:58.374Z,5.60
2023-03-15T09:13:26.165Z,5.70
2023-03-15T09:15:53.929Z,5.90
2023-03-15T09:18:21.712Z,5.90
2023-03-15T09:20:48.844Z,6.10
2023-03-15T09:23:16.210Z,6.10
2023-03-15T09:25:43.318Z,6.20
2023-03-15T09:28:11.648Z,6.00
2023-03-15T09:30:40.820Z,6.10
2023-03-15T09:33:08.553Z,6.20
2023-03-15T09:35:35.811Z,6.20
2023-03-15T09:38:04.041Z,6.40
2023-03-15T09:40:45.462Z,6.30
2023-03-15T09:43:14.037Z,6.40
2023-03-15T09:45:55.777Z,6.50
2023-03-15T09:48:41.526Z,6.40
2023-03-15T09:51:27.962Z,6.20
2023-03-15T09:53:58.213Z,6.10
2023-03-15T09:56:29.869Z,6.00
2023-03-15T09:58:59.706Z,6.10
2023-03-15T10:01:33.033Z,6.10
2023-03-15T10:04:07.215Z,6.20
2023-03-15T10:06:36.458Z,6.40
2023-03-15T10:09:12.652Z,6.70
2023-03-15T10:12:01.701Z,6.90
2023-03-15T10:14:49.791Z,7.00
2023-03-15T10:17:31.027Z,7.10
2023-03-15T10:20:13.110Z,7.20
2023-03-15T10:22:43.452Z,7.20
2023-03-15T10:25:29.757Z,7.20
2023-03-15T10:28:01.843Z,7.50
2023-03-15T10:30:32.094Z,7.80
2023-03-15T10:33:15.830Z,7.80
2023-03-15T10:35:43.036Z,8.00
2023-03-15T10:38:18.366Z,8.00
2023-03-15T10:40:50.362Z,8.00
2023-03-15T10:43:36.839Z,8.00
2023-03-15T10:46:08.712Z,8.30
2023-03-15T10:48:52.195Z,8.30
2023-03-15T10:51:41.631Z,8.20
2023-03-15T10:54:16.620Z,8.20
2023-03-15T10:57:02.173Z,8.40
2023-03-15T10:59:34.772Z,8.30
2023-03-15T11:02:14.094Z,8.40
2023-03-15T11:04:59.165Z,8.50
2023-03-15T11:07:26.081Z,8.40
2023-03-15T11:09:55.770Z,8.50
2023-03-15T11:12:28.383Z,8.40
2023-03-15T11:15:07.751Z,8.40
2023-03-15T11:17:41.587Z,8.20
2023-03-15T11:20:31.265Z,8.00
2023-03-15T11:23:00.121Z,7.90
2023-03-15T11:25:33.986Z,7.70
2023-03-15T11:28:01.515Z,7.70
2023-03-15T11:30:32.158Z,7.80
2023-03-15T11:33:07.971Z,8.50
2023-03-15T11:35:49.683Z,8.40
2023-03-15T11:38:33.529Z,8.70
2023-03-15T11:41:03.178Z,8.80
2023-03-15T11:43:45.225Z,8.90
2023-03-15T11:46:48.770Z,9.00
2023-03-15T11:49:33.652Z,9.00
2023-03-15T11:52:00.930Z,9.20
2023-03-15T11:54:32.156Z,9.30
2023-03-15T11:57:05.382Z,9.50
2023-03-15T11:59:35.734Z,9.60
2023-03-15T12:02:14.650Z,9.60
2023-03-15T12:04:49.785Z,9.60
2023-03-15T12:07:19.710Z,9.40
2023-03-15T12:09:56.685Z,9.50
2023-03-15T12:12:26.586Z,9.80
2023-03-15T12:15:02.985Z,9.70
2023-03-15T12:17:33.062Z,9.40
2023-03-15T12:20:12.597Z,9.30
2023-03-15T12:22:50.064Z,9.00
2023-03-15T12:25:29.577Z,9.30
2023-03-15T12:27:57.996Z,9.70
2023-03-15T12:30:33.353Z,9.90
2023-03-15T12:33:02.494Z,9.90
2023-03-15T12:35:38.398Z,9.80
2023-03-15T12:38:22.608Z,9.80
2023-03-15T12:40:59.009Z,9.70
2023-03-15T12:43:43.495Z,9.80
2023-03-15T12:46:45.846Z,10.00
2023-03-15T12:49:13.881Z,10.30
2023-03-15T12:52:16.383Z,10.00
2023-03-15T12:54:51.559Z,10.00
2023-03-15T12:57:30.288Z,10.00
2023-03-15T13:00:15.760Z,10.00
2023-03-15T13:02:51.919Z,10.10
2023-03-15T13:05:39.241Z,10.20
2023-03-15T13:08:10.498Z,9.90
2023-03-15T13:10:59.183Z,9.90
2023-03-15T13:13:54.622Z,9.90
2023-03-15T13:16:35.860Z,9.90
2023-03-15T13:19:30.265Z,9.90
2023-03-15T13:22:15.711Z,10.40
2023-03-15T13:24:57.987Z,10.40
2023-03-15T13:27:43.647Z,9.90
2023-03-15T13:30:37.298Z,10.00
2023-03-15T13:33:09.116Z,10.00
2023-03-15T13:36:00.449Z,10.20
2023-03-15T13:38:32.730Z,10.10
2023-03-15T13:41:03.711Z,10.20
2023-03-15T13:43:34.759Z,10.20
2023-03-15T13:46:02.696Z,10.30
2023-03-15T13:48:36.254Z,10.20
2023-03-15T13:51:40.856Z,10.20
2023-03-15T13:54:38.339Z,10.10
2023-03-15T13:57:18.452Z,10.00
2023-03-15T14:00:11.575Z,10.10
2023-03-15T14:02:45.775Z,10.20
2023-03-15T14:05:19.317Z,10.10
2023-03-15T14:07:49.721Z,9.90
2023-03-15T14:10:25.758Z,10.00
2023-03-15T14:12:54.885Z,10.00
2023-03-15T14:15:30.261Z,10.30
2023-03-15T14:18:05.208Z,10.30
2023-03-15T14:20:42.860Z,10.40
2023-03-15T14:23:19.083Z,10.30
2023-03-15T14:26:03.385Z,10.30
2023-03-15T14:28:31.982Z,10.20
2023-03-15T14:31:00.087Z,10.30
2023-03-15T14:33:42.185Z,10.00
2023-03-15T14:36:29.685Z,9.90
2023-03-15T14:38:58.460Z,10.00
2023-03-15T14:41:29.024Z,10.10
2023-03-15T14:43:56.089Z,10.10
2023-03-15T14:46:23.484Z,10.20
2023-03-15T14:48:51.346Z,10.10
2023-03-15T14:51:20.735Z,9.70
2023-03-15T14:53:51.569Z,9.90
2023-03-15T14:56:19.842Z,10.00
2023-03-15T14:58:47.095Z,9.90
2023-03-15T15:01:17.897Z,9.90
2023-03-15T15:03:59.792Z,10.10
2023-03-15T15:06:28.375Z,10.00
2023-03-15T15:09:00.085Z,9.80
2023-03-15T15:11:27.328Z,9.60
2023-03-15T15:13:54.881Z,9.70
2023-03-15T15:16:22.956Z,9.70
2023-03-15T15:18:50.113Z,9.80
2023-03-15T15:21:25.444Z,9.80
2023-03-15T15:23:58.306Z,9.90
2023-03-15T15:26:29.907Z,9.90
2023-03-15T15:28:58.051Z,10.00
2023-03-15T15:31:26.565Z,10.00
2023-03-15T15:33:54.873Z,10.00
2023-03-15T15:36:34.166Z,10.00
2023-03-15T15:39:06.518Z,9.90
2023-03-15T15:41:33.965Z,9.70
2023-03-15T15:44:01.319Z,9.70
2023-03-15T15:46:28.555Z,9.60
2023-03-15T15:48:55.607Z,9.70
2023-03-15T15:51:29.766Z,9.70
2023-03-15T15:53:59.320Z,9.80
2023-03-15T15:56:32.480Z,9.80
2023-03-15T15:59:00.982Z,9.70
2023-03-15T16:01:28.346Z,9.70
2023-03-15T16:03:55.396Z,9.70
2023-03-15T16:06:23.456Z,9.70
2023-03-15T16:08:52.594Z,9.70
2023-03-15T16:11:20.749Z,9.60
2023-03-15T16:13:51.836Z,9.70
2023-03-15T16:16:19.187Z,9.60
2023-03-15T16:18:46.186Z,9.60
2023-03-15T16:21:36.158Z,9.50
2023-03-15T16:24:12.880Z,9.40
2023-03-15T16:26:40.774Z,9.30
2023-03-15T16:29:17.690Z,9.20
2023-03-15T16:31:44.948Z,9.20
2023-03-15T16:34:13.383Z,9.30
2023-03-15T16:36:48.488Z,9.20
2023-03-15T16:39:16.862Z,9.20
2023-03-15T16:41:44.057Z,9.10
2023-03-15T16:44:12.386Z,9.10
2023-03-15T16:46:39.734Z,8.90
2023-03-15T16:49:07.352Z,9.00
2023-03-15T16:51:35.514Z,9.10
2023-03-15T16:54:16.189Z,8.90
2023-03-15T16:56:47.307Z,9.00
2023-03-15T16:59:16.156Z,8.80
2023-03-15T17:01:47.561Z,8.70
2023-03-15T17:04:15.324Z,8.80
2023-03-15T17:06:45.799Z,8.70
2023-03-15T17:09:20.044Z,8.70
2023-03-15T17:11:49.015Z,8.70
2023-03-15T17:14:31.653Z,8.70
2023-03-15T17:16:58.850Z,8.60
2023-03-15T17:19:26.253Z,8.60
2023-03-15T17:21:54.017Z,8.50
2023-03-15T17:24:21.613Z,8.50
2023-03-15T17:26:48.793Z,8.50
2023-03-15T17:29:16.297Z,8.40
2023-03-15T17:31:44.687Z,8.40
2023-03-15T17:34:11.885Z,8.40
2023-03-15T17:36:40.141Z,8.40
2023-03-15T17:39:08.260Z,8.40
2023-03-15T17:41:37.536Z,8.40
2023-03-15T17:44:05.001Z,8.30
2023-03-15T17:46:33.313Z,8.30
2023-03-15T17:49:01.236Z,8.20
2023-03-15T17:51:33.048Z,8.20
2023-03-15T17:54:00.355Z,8.20
2023-03-15T17:56:30.640Z,8.10
2023-03-15T17:58:58.181Z,8.20
2023-03-15T18:01:28.097Z,8.10
2023-03-15T18:03:56.334Z,8.10
2023-03-15T18:06:25.907Z,8.00
2023-03-15T18:08:53.450Z,8.00
2023-03-15T18:11:42.514Z,7.90
2023-03-15T18:14:18.280Z,7.90
2023-03-15T18:16:46.237Z,7.90
2023-03-15T18:19:13.815Z,7.90
2023-03-15T18:21:41.253Z,7.90
2023-03-15T18:24:12.680Z,7.90
2023-03-15T18:26:39.934Z,7.80
2023-03-15T18:29:07.278Z,7.80
2023-03-15T18:31:36.112Z,7.70
2023-03-15T18:34:03.707Z,7.70
2023-03-15T18:36:31.695Z,7.70
2023-03-15T18:38:59.203Z,7.70
2023-03-15T18:41:26.642Z,7.70
2023-03-15T18:43:53.751Z,7.70
2023-03-15T18:46:25.439Z,7.70
2023-03-15T18:48:53.742Z,7.60
2023-03-15T18:51:23.012Z,7.60
2023-03-15T18:53:50.358Z,7.60
2023-03-15T18:56:23.314Z,7.60
2023-03-15T18:58:52.870Z,7.60
2023-03-15T19:01:25.011Z,7.50
2023-03-15T19:03:53.424Z,7.50
2023-03-15T19:06:21.797Z,7.50
2023-03-15T19:08:53.307Z,7.50
2023-03-15T19:11:24.239Z,7.50
2023-03-15T19:13:54.794Z,7.50
2023-03-15T19:16:24.335Z,7.50
2023-03-15T19:18:52.782Z,7.40
2023-03-15T19:21:21.662Z,7.40
2023-03-15T19:23:48.629Z,7.40
2023-03-15T19:26:15.769Z,7.40
2023-03-15T19:28:44.536Z,7.40
2023-03-15T19:31:11.801Z,7.40
2023-03-15T19:33:39.237Z,7.40
2023-03-15T19:36:08.157Z,7.30
2023-03-15T19:38:35.922Z,7.30
2023-03-15T19:41:05.322Z,7.30
2023-03-15T19:43:33.819Z,7.20
2023-03-15T19:46:04.671Z,7.20
2023-03-15T19:48:32.042Z,7.20
2023-03-15T19:50:59.347Z,7.20
2023-03-15T19:53:28.649Z,7.20
2023-03-15T19:55:57.622Z,7.20
2023-03-15T19:58:25.199Z,7.10
2023-03-15T20:00:56.584Z,7.10
2023-03-15T20:03:26.624Z,7.10
2023-03-15T20:05:55.402Z,7.00
2023-03-15T20:08:26.454Z,7.00
2023-03-15T20:11:00.110Z,7.00
2023-03-15T20:13:27.515Z,7.00
2023-03-15T20:15:54.727Z,7.00
2023-03-15T20:18:21.941Z,7.00
2023-03-15T20:20:50.276Z,6.90
2023-03-15T20:23:20.001Z,6.90
2023-03-15T20:25:49.578Z,6.90
2023-03-15T20:28:18.206Z,6.90
2023-03-15T20:30:45.554Z,6.90
2023-03-15T20:33:15.451Z,6.90
2023-03-15T20:35:45.126Z,6.80
2023-03-15T20:38:13.283Z,6.80
2023-03-15T20:40:40.452Z,6.80
2023-03-15T20:43:08.018Z,6.80
2023-03-15T20:45:35.319Z,6.80
2023-03-15T20:48:02.508Z,6.80
2023-03-15T20:50:29.588Z,6.70
2023-03-15T20:52:57.234Z,6.70
2023-03-15T20:55:24.719Z,6.70
2023-03-15T20:57:53.377Z,6.70
2023-03-15T21:00:25.600Z,6.70
2023-03-15T21:02:58.704Z,6.60
2023-03-15T21:05:27.979Z,6.60
2023-03-15T21:07:56.748Z,6.50
2023-03-15T21:10:25.615Z,6.50
2023-03-15T21:12:53.649Z,6.50
2023-03-15T21:15:21.488Z,6.50
2023-03-15T21:17:49.903Z,6.50
2023-03-15T21:20:21.712Z,6.40
2023-03-15T21:22:49.576Z,6.40
2023-03-15T21:25:17.553Z,6.40
2023-03-15T21:27:45.854Z,6.30
2023-03-15T21:30:16.439Z,6.30
2023-03-15T21:32:45.710Z,6.30
2023-03-15T21:35:14.881Z,6.20
2023-03-15T21:37:43.163Z,6.20
2023-03-15T21:40:13.390Z,6.20
2023-03-15T21:42:43.811Z,6.20
2023-03-15T21:45:12.442Z,6.20
2023-03-15T21:47:43.150Z,6.10
2023-03-15T21:50:12.282Z,6.10
2023-03-15T21:52:39.975Z,6.10
2023-03-15T21:55:08.426Z,6.00
2023-03-15T21:57:46.403Z,6.00
2023-03-15T22:00:19.678Z,6.10
2023-03-15T22:02:47.096Z,6.00
2023-03-15T22:05:15.272Z,6.00
2023-03-15T22:07:44.558Z,6.00
2023-03-15T22:10:12.180Z,5.90
2023-03-15T22:12:39.282Z,5.90
2023-03-15T22:15:09.068Z,5.90
2023-03-15T22:17:37.774Z,5.90
2023-03-15T22:20:14.631Z,5.80
2023-03-15T22:22:41.890Z,5.80
2023-03-15T22:25:09.302Z,5.80
2023-03-15T22:27:36.542Z,5.70
2023-03-15T22:30:05.086Z,5.70
2023-03-15T22:32:32.289Z,5.70
2023-03-15T22:35:02.220Z,5.60
2023-03-15T22:37:29.325Z,5.60
2023-03-15T22:39:56.352Z,5.70
2023-03-15T22:42:23.606Z,5.70
2023-03-15T22:44:55.462Z,5.70
2023-03-15T22:47:22.760Z,5.60
2023-03-15T22:49:49.996Z,5.60
2023-03-15T22:52:17.042Z,5.60
2023-03-15T22:54:44.433Z,5.60
2023-03-15T22:57:11.802Z,5.60
2023-03-15T22:59:39.682Z,5.60
2023-03-15T23:02:07.780Z,5.60
2023-03-15T23:04:34.882Z,5.60
2023-03-15T23:07:02.008Z,5.60
2023-03-15T23:09:29.259Z,5.60
2023-03-15T23:11:57.704Z,5.60
2023-03-15T23:14:24.940Z,5.60
2023-03-15T23:16:52.710Z,5.60
2023-03-15T23:19:19.754Z,5.60
2023-03-15T23:21:46.751Z,5.60
2023-03-15T23:24:17.106Z,5.60
2023-03-15T23:26:44.540Z,5.60
2023-03-15T23:29:12.302Z,5.70
2023-03-15T23:31:40.912Z,5.70
2023-03-15T23:34:08.706Z,5.60
2023-03-15T23:36:35.922Z,5.70
2023-03-15T23:39:02.910Z,5.70
2023-03-15T23:41:29.813Z,5.70
2023-03-15T23:43:56.894Z,5.70
2023-03-15T23:46:23.946Z,5.70
2023-03-15T23:48:52.387Z,5.70
2023-03-15T23:51:20.296Z,5.60
2023-03-15T23:53:47.329Z,5.60
2023-03-15T23:56:14.559Z,5.70
2023-03-15T23:58:42.534Z,5.70
